Time;durP1;ratioP1;P1;durP2;ratioP2;P2;SDS_P1;SDS_P2;PMS_P1;PMS_P2;Temp;Humidity;BMP_temperature;BMP_pressure;BME280_temperature;BME280_humidity;BME280_pressure;Samples;Min_cycle;Max_cycle;Signal;HPM_P1;HPM_P2
2022/04/12 00:00:37;;;;;;;0.45;0.45;;;10.70;1.00;;;;;;5075072;28;20051;-71
2022/04/12 00:03:04;;;;;;;0.10;0.10;;;10.70;1.00;;;;;;5075280;28;20041;-71
2022/04/12 00:05:30;;;;;;;0.90;0.68;;;10.80;1.00;;;;;;5074932;28;20479;-71
2022/04/12 00:07:56;;;;;;;0.43;0.43;;;10.70;1.00;;;;;;5075114;28;20055;-71
2022/04/12 00:10:22;;;;;;;0.10;0.10;;;10.70;1.00;;;;;;5074946;28;20197;-71
2022/04/12 00:12:48;;;;;;;0.17;0.17;;;10.70;1.00;;;;;;5075315;28;20491;-71
2022/04/12 00:15:14;;;;;;;0.20;0.20;;;10.70;1.00;;;;;;5075113;28;20044;-71
2022/04/12 00:20:26;;;;;;;0.52;0.52;;;10.70;1.00;;;;;;5074251;28;20048;-71
2022/04/12 00:22:56;;;;;;;0.10;0.10;;;10.70;1.00;;;;;;5074331;28;20059;-71
2022/04/12 00:25:23;;;;;;;0.60;0.45;;;10.70;1.00;;;;;;5074363;28;20119;-71
2022/04/12 00:27:51;;;;;;;0.10;0.10;;;10.70;1.00;;;;;;5074871;28;20041;-71
2022/04/12 00:30:18;;;;;;;0.20;0.20;;;10.70;1.00;;;;;;5075215;28;20032;-71
2022/04/12 00:32:45;;;;;;;0.10;0.10;;;10.70;1.00;;;;;;5074546;28;20062;-71
2022/04/12 00:35:11;;;;;;;1.65;0.75;;;10.70;1.00;;;;;;5074270;28;20395;-71
2022/04/12 00:37:37;;;;;;;0.20;0.20;;;10.60;1.00;;;;;;5074719;28;20036;-71
2022/04/12 00:40:04;;;;;;;0.10;0.10;;;10.60;1.00;;;;;;5074568;28;20166;-71
2022/04/12 00:42:31;;;;;;;0.10;0.10;;;10.60;1.00;;;;;;5074951;28;20118;-71
2022/04/12 00:44:57;;;;;;;1.75;0.45;;;10.60;1.00;;;;;;5074413;28;20033;-71
2022/04/12 00:47:23;;;;;;;1.85;0.50;;;10.60;1.00;;;;;;5074313;28;20048;-71
2022/04/12 00:49:49;;;;;;;0.20;0.20;;;10.60;1.00;;;;;;5074982;28;20036;-71
2022/04/12 00:52:16;;;;;;;0.45;0.20;;;10.60;1.00;;;;;;5074856;28;20044;-71
2022/04/12 00:54:43;;;;;;;0.10;0.10;;;10.60;1.00;;;;;;5073471;28;20124;-71
2022/04/12 00:57:10;;;;;;;0.10;0.10;;;10.60;1.00;;;;;;5074051;28;20041;-71
2022/04/12 00:59:36;;;;;;;0.08;0.08;;;10.50;1.00;;;;;;5074689;28;20075;-71
2022/04/12 01:02:04;;;;;;;2.20;1.65;;;10.50;1.00;;;;;;5073932;28;20068;-71
2022/04/12 01:04:30;;;;;;;0.63;0.57;;;10.50;1.00;;;;;;5073752;28;20066;-71
2022/04/12 01:06:56;;;;;;;0.90;0.35;;;10.50;1.00;;;;;;5074416;28;20048;-71
2022/04/12 01:09:26;;;;;;;0.10;0.10;;;10.50;1.00;;;;;;5074214;28;20070;-71
2022/04/12 01:11:53;;;;;;;0.10;0.10;;;10.50;1.00;;;;;;5074090;28;20032;-71
2022/04/12 01:14:19;;;;;;;0.10;0.10;;;10.50;1.00;;;;;;5074070;28;20040;-71
2022/04/12 01:16:45;;;;;;;0.15;0.15;;;10.50;1.00;;;;;;5074028;28;20083;-71
2022/04/12 01:19:11;;;;;;;12.20;0.93;;;10.50;1.00;;;;;;5074780;28;20064;-71
2022/04/12 01:21:54;;;;;;;0.10;0.10;;;10.50;1.00;;;;;;5073792;28;20053;-71
2022/04/12 01:24:20;;;;;;;0.40;0.40;;;10.50;1.00;;;;;;5074626;28;20056;-71
2022/04/12 01:26:46;;;;;;;0.10;0.10;;;10.50;1.00;;;;;;5074236;28;20045;-71
2022/04/12 01:29:13;;;;;;;0.10;0.10;;;10.60;1.00;;;;;;5074208;28;20071;-71
2022/04/12 01:31:39;;;;;;;0.40;0.40;;;10.60;1.00;;;;;;5074312;28;20505;-71
2022/04/12 01:34:05;;;;;;;0.10;0.10;;;10.60;1.00;;;;;;5073571;28;20041;-71
2022/04/12 01:36:30;;;;;;;0.10;0.10;;;10.50;1.00;;;;;;5074001;28;20368;-71
2022/04/12 01:38:57;;;;;;;0.10;0.10;;;10.50;1.00;;;;;;5073769;28;20048;-71
2022/04/12 01:41:22;;;;;;;0.40;0.40;;;10.60;1.00;;;;;;5073969;28;20567;-71
2022/04/12 01:43:48;;;;;;;0.10;0.10;;;10.60;1.00;;;;;;5074349;28;20123;-71
2022/04/12 01:46:14;;;;;;;2.20;0.85;;;10.50;1.00;;;;;;5073987;28;20037;-71
2022/04/12 01:48:40;;;;;;;1.33;0.68;;;10.60;1.00;;;;;;5074017;28;20437;-71
2022/04/12 01:51:06;;;;;;;3.60;1.75;;;10.60;1.00;;;;;;5073767;28;20036;-71
2022/04/12 01:53:31;;;;;;;0.35;0.17;;;10.60;1.00;;;;;;5074106;28;20094;-71
2022/04/12 01:55:57;;;;;;;0.10;0.10;;;10.60;1.00;;;;;;5073604;28;20043;-71
2022/04/12 01:58:23;;;;;;;0.10;0.10;;;10.60;1.00;;;;;;5073857;28;20056;-71
2022/04/12 02:00:49;;;;;;;0.35;0.35;;;10.60;1.00;;;;;;5072058;28;20040;-71
2022/04/12 02:03:15;;;;;;;1.13;0.45;;;10.60;1.00;;;;;;5073008;28;20033;-71
2022/04/12 02:05:41;;;;;;;0.30;0.30;;;10.60;1.00;;;;;;5071949;28;20119;-71
2022/04/12 02:08:08;;;;;;;0.10;0.10;;;10.60;1.00;;;;;;5073355;28;20167;-71
2022/04/12 02:10:34;;;;;;;0.10;0.10;;;10.60;1.00;;;;;;5073974;28;20494;-71
2022/04/12 02:13:00;;;;;;;0.20;0.20;;;10.60;1.00;;;;;;5073518;28;20036;-71
2022/04/12 02:15:26;;;;;;;0.15;0.15;;;10.60;1.00;;;;;;5077037;28;20059;-71
2022/04/12 02:17:52;;;;;;;0.10;0.10;;;10.60;1.00;;;;;;5077402;28;20491;-71
2022/04/12 02:20:18;;;;;;;6.80;2.75;;;10.60;1.00;;;;;;5077097;28;20490;-71
2022/04/12 02:22:44;;;;;;;0.10;0.10;;;10.60;1.00;;;;;;5077047;28;20118;-71
2022/04/12 02:25:10;;;;;;;0.80;0.75;;;10.70;1.00;;;;;;5077137;28;20036;-71
2022/04/12 02:27:36;;;;;;;0.70;0.70;;;10.70;1.00;;;;;;5077129;28;20072;-71
2022/04/12 02:30:01;;;;;;;0.10;0.10;;;10.70;1.00;;;;;;5077603;28;20070;-71
2022/04/12 02:32:28;;;;;;;0.20;0.20;;;10.70;1.00;;;;;;5076651;28;20051;-71
2022/04/12 02:34:57;;;;;;;0.10;0.10;;;10.70;1.00;;;;;;5076705;28;20032;-71
2022/04/12 02:37:23;;;;;;;0.15;0.15;;;10.70;1.00;;;;;;5076593;28;20068;-71
2022/04/12 02:39:49;;;;;;;1.05;0.50;;;10.70;1.00;;;;;;5077148;28;20087;-70
2022/04/12 02:42:17;;;;;;;0.10;0.10;;;10.60;1.00;;;;;;5076837;28;20044;-71
2022/04/12 02:44:42;;;;;;;0.20;0.20;;;10.60;1.00;;;;;;5076621;28;20039;-71
2022/04/12 02:47:08;;;;;;;2.17;0.90;;;10.60;1.00;;;;;;5077031;28;20135;-71
2022/04/12 02:49:34;;;;;;;0.10;0.10;;;10.60;1.00;;;;;;5076771;28;20115;-71
2022/04/12 02:52:00;;;;;;;0.20;0.20;;;10.60;1.00;;;;;;5077029;28;20471;-71
2022/04/12 02:54:26;;;;;;;0.10;0.10;;;10.60;1.00;;;;;;5076608;28;20040;-71
2022/04/12 02:56:51;;;;;;;0.10;0.10;;;10.60;1.00;;;;;;5076084;28;20036;-71
2022/04/12 02:59:17;;;;;;;0.20;0.20;;;10.60;1.00;;;;;;5076191;28;20106;-71
2022/04/12 03:01:43;;;;;;;0.28;0.28;;;10.60;1.00;;;;;;5076141;28;20567;-71
2022/04/12 03:04:09;;;;;;;1.00;0.85;;;10.60;1.00;;;;;;5076142;28;20046;-71
2022/04/12 03:06:35;;;;;;;0.10;0.10;;;10.60;1.00;;;;;;5076206;28;20402;-71
2022/04/12 03:09:01;;;;;;;0.20;0.20;;;10.60;1.00;;;;;;5076183;28;20040;-71
2022/04/12 03:11:26;;;;;;;0.10;0.10;;;10.60;1.00;;;;;;5075796;28;20028;-71
2022/04/12 03:13:53;;;;;;;0.00;0.00;;;10.60;1.00;;;;;;5075984;28;20033;-71
2022/04/12 03:16:19;;;;;;;0.30;0.30;;;10.60;1.00;;;;;;5076293;28;20052;-71
2022/04/12 03:18:45;;;;;;;0.20;0.20;;;10.60;1.00;;;;;;5075790;28;20056;-71
2022/04/12 03:21:11;;;;;;;1.35;1.25;;;10.60;1.00;;;;;;5075902;28;20080;-71
2022/04/12 03:23:36;;;;;;;0.25;0.25;;;10.60;1.00;;;;;;5076403;28;20032;-71
2022/04/12 03:26:03;;;;;;;0.55;0.55;;;10.50;1.00;;;;;;5075762;28;20036;-71
2022/04/12 03:28:29;;;;;;;0.20;0.20;;;10.50;1.00;;;;;;5075967;28;20135;-71
2022/04/12 03:30:55;;;;;;;0.10;0.10;;;10.60;1.00;;;;;;5076510;28;20033;-71
2022/04/12 03:33:21;;;;;;;0.30;0.30;;;10.50;1.00;;;;;;5075906;28;20047;-71
2022/04/12 03:35:46;;;;;;;0.10;0.10;;;10.50;1.00;;;;;;5075902;28;20568;-71
2022/04/12 03:38:14;;;;;;;0.10;0.10;;;10.50;1.00;;;;;;5075683;28;20040;-71
2022/04/12 03:40:41;;;;;;;0.10;0.10;;;10.50;1.00;;;;;;5076200;28;20044;-71
2022/04/12 03:43:07;;;;;;;0.22;0.22;;;10.50;1.00;;;;;;5075902;28;20032;-71
2022/04/12 03:45:34;;;;;;;0.10;0.10;;;10.50;1.00;;;;;;5075639;28;20515;-71
2022/04/12 03:48:00;;;;;;;0.10;0.10;;;10.50;1.00;;;;;;5075549;28;20500;-71
2022/04/12 03:50:26;;;;;;;0.20;0.20;;;10.50;1.00;;;;;;5075593;28;20044;-71
2022/04/12 03:52:53;;;;;;;0.10;0.10;;;10.50;1.00;;;;;;5075496;28;20536;-71
2022/04/12 03:55:30;;;;;;;0.10;0.10;;;10.50;1.00;;;;;;5075663;28;20078;-71
2022/04/12 04:00:36;;;;;;;1.93;0.60;;;10.50;1.00;;;;;;5382929;22;20057;-71
2022/04/12 04:03:03;;;;;;;3.53;0.63;;;10.50;1.00;;;;;;5067437;28;20075;-71
2022/04/12 04:08:12;;;;;;;0.10;0.10;;;10.50;1.00;;;;;;5146973;22;20058;-71
2022/04/12 04:10:38;;;;;;;0.10;0.10;;;10.50;1.00;;;;;;5123540;27;20043;-72
2022/04/12 04:13:08;;;;;;;0.10;0.10;;;10.50;1.00;;;;;;5135306;27;20062;-72
2022/04/12 04:15:40;;;;;;;0.10;0.10;;;10.50;1.00;;;;;;5131049;27;20043;-72
2022/04/12 04:18:08;;;;;;;0.20;0.20;;;10.50;1.00;;;;;;5135975;27;20103;-72
2022/04/12 04:20:35;;;;;;;0.10;0.10;;;10.50;1.00;;;;;;5130052;27;20035;-72
2022/04/12 04:23:01;;;;;;;0.10;0.10;;;10.40;1.00;;;;;;5131237;27;20119;-72
2022/04/12 04:25:28;;;;;;;0.00;0.00;;;10.40;1.00;;;;;;5130111;27;20094;-72
2022/04/12 04:27:55;;;;;;;0.20;0.20;;;10.50;1.00;;;;;;5134842;27;20084;-72
2022/04/12 04:30:22;;;;;;;0.10;0.10;;;10.50;1.00;;;;;;5134981;27;20117;-72
2022/04/12 04:32:50;;;;;;;0.38;0.38;;;10.50;1.00;;;;;;5135223;27;20083;-72
2022/04/12 04:35:17;;;;;;;0.70;0.63;;;10.40;1.00;;;;;;5135762;27;20034;-74
2022/04/12 04:37:50;;;;;;;0.73;0.73;;;10.40;1.00;;;;;;5134702;27;20042;-72
2022/04/12 04:40:20;;;;;;;1.98;1.58;;;10.50;1.00;;;;;;5482675;22;20202;-69
2022/04/12 04:42:46;;;;;;;0.10;0.10;;;10.40;1.00;;;;;;5072465;28;20540;-68
2022/04/12 04:45:14;;;;;;;1.95;1.23;;;10.40;1.00;;;;;;5054576;28;20127;-68
2022/04/12 04:47:57;;;;;;;0.20;0.20;;;10.40;1.00;;;;;;5072310;28;20048;-70
2022/04/12 04:50:26;;;;;;;0.20;0.20;;;10.40;1.00;;;;;;5072708;28;20037;-68
2022/04/12 04:52:52;;;;;;;0.20;0.20;;;10.40;1.00;;;;;;5080687;28;20035;-68
2022/04/12 04:55:19;;;;;;;0.10;0.10;;;10.40;1.00;;;;;;5093087;28;20043;-68
2022/04/12 04:57:47;;;;;;;0.40;0.40;;;10.40;1.00;;;;;;5093296;28;20359;-68
2022/04/12 05:00:16;;;;;;;0.38;0.38;;;10.40;1.00;;;;;;5093111;28;20048;-68
2022/04/12 05:02:44;;;;;;;0.10;0.10;;;10.40;1.00;;;;;;5093147;28;20050;-68
2022/04/12 05:05:11;;;;;;;0.15;0.15;;;10.40;1.00;;;;;;5091931;28;20044;-68
2022/04/12 05:07:39;;;;;;;0.10;0.10;;;10.40;1.00;;;;;;5093147;28;20028;-68
2022/04/12 05:10:07;;;;;;;0.10;0.10;;;10.40;1.00;;;;;;5092937;28;20044;-68
2022/04/12 05:12:33;;;;;;;0.10;0.10;;;10.40;1.00;;;;;;5092996;28;20028;-68
2022/04/12 05:14:59;;;;;;;6.18;2.13;;;10.40;1.00;;;;;;5093033;28;20064;-68
2022/04/12 05:17:27;;;;;;;0.30;0.15;;;10.40;1.00;;;;;;5093011;28;20035;-68
2022/04/12 05:19:56;;;;;;;0.17;0.17;;;10.50;1.00;;;;;;5092943;28;20044;-68
2022/04/12 05:22:23;;;;;;;0.03;0.03;;;10.50;1.00;;;;;;5093029;28;20106;-68
2022/04/12 05:24:50;;;;;;;0.10;0.10;;;10.50;1.00;;;;;;5092845;28;20047;-68
2022/04/12 05:27:17;;;;;;;0.13;0.13;;;10.40;1.00;;;;;;5092938;28;20028;-68
2022/04/12 05:29:43;;;;;;;0.20;0.20;;;10.40;1.00;;;;;;5093310;28;20062;-68
2022/04/12 05:32:12;;;;;;;0.43;0.43;;;10.40;1.00;;;;;;5092938;28;20563;-68
2022/04/12 05:34:43;;;;;;;0.10;0.10;;;10.40;1.00;;;;;;5092764;28;20036;-68
2022/04/12 05:37:10;;;;;;;9.65;1.38;;;10.50;1.00;;;;;;5092863;28;20032;-68
2022/04/12 05:39:36;;;;;;;0.75;0.15;;;10.50;1.00;;;;;;5090945;28;20558;-69
2022/04/12 05:42:04;;;;;;;0.30;0.30;;;10.50;1.00;;;;;;5092770;28;20119;-68
2022/04/12 05:44:34;;;;;;;0.50;0.25;;;10.50;1.00;;;;;;5093111;28;20043;-68
2022/04/12 05:47:02;;;;;;;0.10;0.10;;;10.50;1.00;;;;;;5092624;28;20032;-68
2022/04/12 05:49:30;;;;;;;0.10;0.10;;;10.50;1.00;;;;;;5096911;28;20051;-68
2022/04/12 05:51:56;;;;;;;0.10;0.10;;;10.50;1.00;;;;;;5096960;28;20031;-70
2022/04/12 05:54:23;;;;;;;5.35;1.65;;;10.60;1.00;;;;;;5097005;28;20486;-69
2022/04/12 05:56:50;;;;;;;0.10;0.10;;;10.60;1.00;;;;;;5096740;28;20416;-68
2022/04/12 05:59:16;;;;;;;0.10;0.10;;;10.60;1.00;;;;;;5096713;28;20054;-71
2022/04/12 06:01:43;;;;;;;0.10;0.10;;;10.60;1.00;;;;;;5096663;28;20047;-72
2022/04/12 06:04:09;;;;;;;0.10;0.10;;;10.60;1.00;;;;;;5096252;28;20064;-69
2022/04/12 06:06:35;;;;;;;0.43;0.43;;;10.50;1.00;;;;;;5096655;28;20046;-70
2022/04/12 06:09:03;;;;;;;0.10;0.10;;;10.60;1.00;;;;;;5096437;28;20044;-70
2022/04/12 06:11:29;;;;;;;0.50;0.50;;;10.50;1.00;;;;;;5096020;28;20036;-69
2022/04/12 06:13:55;;;;;;;0.10;0.10;;;10.60;1.00;;;;;;5094266;28;20119;-70
2022/04/12 06:16:22;;;;;;;0.13;0.13;;;10.50;1.00;;;;;;5094909;28;20080;-70
2022/04/12 06:18:48;;;;;;;0.20;0.20;;;10.60;1.00;;;;;;5094442;28;20079;-70
2022/04/12 06:21:13;;;;;;;0.10;0.10;;;10.60;1.00;;;;;;5084353;28;20063;-70
2022/04/12 06:23:39;;;;;;;0.10;0.10;;;10.50;1.00;;;;;;5096313;28;20046;-70
2022/04/12 06:26:05;;;;;;;0.10;0.10;;;10.60;1.00;;;;;;5094252;28;20062;-70
2022/04/12 06:28:32;;;;;;;1.38;0.28;;;10.60;1.00;;;;;;5083581;28;20055;-70
2022/04/12 06:31:01;;;;;;;0.68;0.68;;;10.60;1.00;;;;;;5095573;28;20039;-70
2022/04/12 06:33:27;;;;;;;0.38;0.20;;;10.60;1.00;;;;;;5095144;28;20039;-70
2022/04/12 06:35:53;;;;;;;0.10;0.10;;;10.70;1.00;;;;;;5095804;28;20043;-70
2022/04/12 06:38:19;;;;;;;0.10;0.10;;;10.70;1.00;;;;;;5095679;28;20036;-70
2022/04/12 06:40:48;;;;;;;0.20;0.20;;;10.70;1.00;;;;;;5095393;28;20079;-70
2022/04/12 06:43:14;;;;;;;0.10;0.10;;;10.80;1.00;;;;;;5076631;28;20494;-68
2022/04/12 06:45:40;;;;;;;0.10;0.10;;;10.80;1.00;;;;;;5075576;28;20085;-69
2022/04/12 06:48:06;;;;;;;1.58;1.45;;;10.80;1.00;;;;;;5075436;28;20465;-69
2022/04/12 06:50:33;;;;;;;0.10;0.10;;;10.80;1.00;;;;;;5076497;28;20063;-69
2022/04/12 06:53:00;;;;;;;0.38;0.38;;;11.00;1.00;;;;;;5077787;28;20047;-69
2022/04/12 06:55:27;;;;;;;0.20;0.20;;;11.00;1.00;;;;;;5075905;28;20573;-69
2022/04/12 06:57:53;;;;;;;0.43;0.32;;;11.00;1.00;;;;;;5075324;28;20116;-69
2022/04/12 07:00:19;;;;;;;0.63;0.63;;;11.00;1.00;;;;;;5086175;28;20044;-69
2022/04/12 07:02:46;;;;;;;0.10;0.10;;;11.10;1.00;;;;;;5093722;28;20039;-71
2022/04/12 07:05:12;;;;;;;0.10;0.10;;;11.10;1.00;;;;;;5093295;28;20036;-69
2022/04/12 07:07:40;;;;;;;0.10;0.10;;;11.20;1.00;;;;;;5083330;28;20028;-69
2022/04/12 07:10:08;;;;;;;0.10;0.10;;;11.20;1.00;;;;;;5094893;28;20040;-69
2022/04/12 07:12:35;;;;;;;0.10;0.10;;;11.30;1.00;;;;;;5094949;28;20076;-69
2022/04/12 07:15:02;;;;;;;0.30;0.30;;;11.30;1.00;;;;;;5094849;28;20040;-69
2022/04/12 07:17:27;;;;;;;0.20;0.20;;;11.20;1.00;;;;;;5094967;28;20070;-69
2022/04/12 07:19:53;;;;;;;0.30;0.30;;;11.20;1.00;;;;;;5094748;28;20080;-69
2022/04/12 07:22:19;;;;;;;0.20;0.20;;;11.20;1.00;;;;;;5095051;28;20685;-68
2022/04/12 07:24:45;;;;;;;0.30;0.30;;;11.10;1.00;;;;;;5094628;28;20039;-69
2022/04/12 07:27:11;;;;;;;0.47;0.47;;;11.00;1.00;;;;;;5094697;28;20043;-69
2022/04/12 07:29:38;;;;;;;0.47;0.47;;;11.00;1.00;;;;;;5094891;28;20048;-69
2022/04/12 07:32:04;;;;;;;0.10;0.10;;;11.10;1.00;;;;;;5094497;28;20032;-69
2022/04/12 07:34:30;;;;;;;0.32;0.32;;;11.10;1.00;;;;;;5094553;28;20101;-69
2022/04/12 07:36:56;;;;;;;0.10;0.10;;;11.00;1.00;;;;;;5094876;28;20505;-69
2022/04/12 07:39:23;;;;;;;0.52;0.32;;;11.10;1.00;;;;;;5094030;28;20051;-70
2022/04/12 07:41:51;;;;;;;0.40;0.40;;;11.10;1.00;;;;;;5094779;28;20047;-69
2022/04/12 07:44:18;;;;;;;0.10;0.10;;;11.30;1.00;;;;;;5094466;28;20035;-69
2022/04/12 07:46:45;;;;;;;0.10;0.10;;;11.40;1.00;;;;;;5094699;28;20036;-69
2022/04/12 07:49:11;;;;;;;0.55;0.55;;;11.40;1.00;;;;;;5094235;28;20066;-69
2022/04/12 07:51:37;;;;;;;0.10;0.10;;;11.30;1.00;;;;;;5094264;28;20516;-69
2022/04/12 07:54:04;;;;;;;0.88;0.82;;;11.50;1.00;;;;;;5094392;28;20035;-69
2022/04/12 07:56:33;;;;;;;0.10;0.10;;;11.40;1.00;;;;;;5094530;28;20032;-69
2022/04/12 07:59:00;;;;;;;1.15;1.05;;;11.50;1.00;;;;;;5094307;28;20047;-69
2022/04/12 08:01:26;;;;;;;0.10;0.10;;;11.50;1.00;;;;;;5094320;28;20044;-69
2022/04/12 08:03:52;;;;;;;0.10;0.10;;;11.60;1.00;;;;;;5094364;28;20667;-69
2022/04/12 08:06:17;;;;;;;0.25;0.25;;;11.60;1.00;;;;;;5094282;28;20047;-69
2022/04/12 08:08:44;;;;;;;0.30;0.30;;;11.60;1.00;;;;;;5093955;28;20549;-69
2022/04/12 08:11:10;;;;;;;1.10;0.73;;;11.50;1.00;;;;;;5094289;28;20040;-69
2022/04/12 08:13:36;;;;;;;0.10;0.10;;;11.50;1.00;;;;;;5094195;28;20130;-69
2022/04/12 08:16:03;;;;;;;0.40;0.40;;;11.60;1.00;;;;;;5094098;28;20059;-69
2022/04/12 08:18:29;;;;;;;7.03;1.48;;;11.40;1.00;;;;;;5093969;28;20532;-69
2022/04/12 08:20:55;;;;;;;1.10;0.65;;;11.60;1.00;;;;;;5093545;28;20032;-69
2022/04/12 08:23:22;;;;;;;0.68;0.52;;;11.60;1.00;;;;;;5094028;28;20036;-69
2022/04/12 08:25:49;;;;;;;0.30;0.30;;;11.60;1.00;;;;;;5093503;28;20090;-69
2022/04/12 08:28:15;;;;;;;2.35;1.05;;;11.70;1.00;;;;;;5093910;28;20040;-69
2022/04/12 08:30:41;;;;;;;1.25;0.73;;;11.80;1.00;;;;;;5093798;28;20042;-69
2022/04/12 08:33:06;;;;;;;0.20;0.20;;;11.90;1.00;;;;;;5093534;28;20494;-69
2022/04/12 08:35:32;;;;;;;3.40;1.77;;;12.00;1.00;;;;;;5093885;28;20036;-69
2022/04/12 08:37:58;;;;;;;5.35;0.75;;;11.90;1.00;;;;;;5093385;28;20031;-69
2022/04/12 08:40:24;;;;;;;0.10;0.10;;;11.90;1.00;;;;;;5093478;28;20136;-69
2022/04/12 08:42:54;;;;;;;0.10;0.10;;;11.90;1.00;;;;;;5093234;28;20105;-69
2022/04/12 08:45:20;;;;;;;0.20;0.20;;;12.10;1.00;;;;;;5093674;28;20036;-69
2022/04/12 08:47:46;;;;;;;0.17;0.17;;;12.10;1.00;;;;;;5093690;28;20078;-69
2022/04/12 08:50:11;;;;;;;2.53;1.65;;;12.10;1.00;;;;;;5093744;28;20126;-69
2022/04/12 08:52:38;;;;;;;0.55;0.55;;;12.10;1.00;;;;;;5093511;28;20066;-69
2022/04/12 08:55:08;;;;;;;0.10;0.10;;;12.00;1.00;;;;;;5093437;28;20157;-69
2022/04/12 08:57:34;;;;;;;0.50;0.47;;;11.90;1.00;;;;;;5093197;28;20058;-69
2022/04/12 09:00:01;;;;;;;0.20;0.20;;;11.90;1.00;;;;;;5093586;28;20561;-69
2022/04/12 09:02:26;;;;;;;1.08;0.98;;;12.00;1.00;;;;;;5093482;28;20494;-69
2022/04/12 09:04:52;;;;;;;1.02;0.90;;;12.00;1.00;;;;;;5093428;28;20093;-69
2022/04/12 09:07:27;;;;;;;0.20;0.20;;;11.90;1.00;;;;;;5093399;28;20036;-69
2022/04/12 09:10:04;;;;;;;0.10;0.10;;;11.90;1.00;;;;;;5092985;28;20131;-69
2022/04/12 09:12:34;;;;;;;0.10;0.10;;;11.90;1.00;;;;;;5093030;28;20556;-69
2022/04/12 09:15:00;;;;;;;0.10;0.10;;;11.80;1.00;;;;;;5093256;28;20036;-69
2022/04/12 09:17:34;;;;;;;0.20;0.20;;;12.00;1.00;;;;;;5093380;28;20081;-69
2022/04/12 09:20:00;;;;;;;0.20;0.20;;;12.10;1.00;;;;;;5093307;28;20113;-69
2022/04/12 09:22:28;;;;;;;0.20;0.20;;;12.00;1.00;;;;;;5093488;28;20050;-69
2022/04/12 09:24:54;;;;;;;1.15;0.17;;;11.90;1.00;;;;;;5097247;28;20040;-69
2022/04/12 09:27:22;;;;;;;0.10;0.10;;;12.00;1.00;;;;;;5079183;28;20073;-69
2022/04/12 09:29:54;;;;;;;0.20;0.20;;;12.10;1.00;;;;;;5097161;28;20522;-69
2022/04/12 09:32:22;;;;;;;0.10;0.10;;;12.10;1.00;;;;;;5097351;28;20111;-69
2022/04/12 09:34:48;;;;;;;0.10;0.10;;;12.30;1.00;;;;;;5078130;28;20102;-69
2022/04/12 09:37:28;;;;;;;0.30;0.30;;;12.20;1.00;;;;;;5096459;28;20528;-69
2022/04/12 09:40:00;;;;;;;0.10;0.10;;;12.00;1.00;;;;;;5095742;28;20048;-69
2022/04/12 09:42:51;;;;;;;0.45;0.45;;;12.10;1.00;;;;;;5096276;28;20105;-69
2022/04/12 09:45:24;;;;;;;0.10;0.10;;;12.10;1.00;;;;;;5096163;28;20069;-69
2022/04/12 09:47:52;;;;;;;0.40;0.40;;;12.00;1.00;;;;;;5096605;28;20051;-70
2022/04/12 09:50:25;;;;;;;0.17;0.17;;;11.90;1.00;;;;;;5096252;28;20046;-71
2022/04/12 09:53:00;;;;;;;37.45;1.17;;;11.90;1.00;;;;;;5096074;28;20096;-70
2022/04/12 09:55:42;;;;;;;0.82;0.82;;;12.20;1.00;;;;;;5095533;28;20148;-70
2022/04/12 09:58:10;;;;;;;1.52;1.17;;;12.50;1.00;;;;;;5095538;28;20035;-70
2022/04/12 10:00:41;;;;;;;0.10;0.10;;;12.50;1.00;;;;;;5096123;28;20135;-70
2022/04/12 10:03:09;;;;;;;0.45;0.45;;;12.40;1.00;;;;;;5095936;28;20513;-70
2022/04/12 10:05:36;;;;;;;2.35;1.30;;;12.90;1.00;;;;;;5095159;28;20050;-70
2022/04/12 10:08:04;;;;;;;0.65;0.65;;;13.30;1.00;;;;;;5095608;28;20048;-71
2022/04/12 10:10:30;;;;;;;0.10;0.10;;;13.00;1.00;;;;;;5095081;28;20044;-69
2022/04/12 10:12:58;;;;;;;1.25;0.90;;;12.90;1.00;;;;;;5076387;28;20036;-69
2022/04/12 10:15:26;;;;;;;2.08;1.30;;;12.90;1.00;;;;;;5075240;28;20060;-69
2022/04/12 10:17:53;;;;;;;0.22;0.22;;;13.30;1.00;;;;;;5074675;28;20436;-69
2022/04/12 10:20:20;;;;;;;0.30;0.30;;;13.40;1.00;;;;;;5075498;28;20486;-69
2022/04/12 10:22:47;;;;;;;0.68;0.68;;;13.30;1.00;;;;;;5074791;28;20052;-70
2022/04/12 10:25:21;;;;;;;0.68;0.57;;;12.90;1.00;;;;;;5074713;28;20162;-71
2022/04/12 10:27:48;;;;;;;1.35;0.65;;;12.90;1.00;;;;;;5075297;28;20561;-70
2022/04/12 10:30:17;;;;;;;0.20;0.20;;;12.80;1.00;;;;;;5075225;28;20040;-70
2022/04/12 10:33:07;;;;;;;0.20;0.20;;;12.60;1.00;;;;;;5074684;28;20482;-69
2022/04/12 10:35:42;;;;;;;0.57;0.57;;;12.60;1.00;;;;;;5072996;28;20037;-69
2022/04/12 10:38:12;;;;;;;0.63;0.63;;;12.80;1.00;;;;;;5073916;28;20037;-70
2022/04/12 10:40:42;;;;;;;0.10;0.10;;;13.20;1.00;;;;;;5073632;28;20523;-70
2022/04/12 10:43:11;;;;;;;0.13;0.13;;;13.10;1.00;;;;;;5074715;28;20033;-70
2022/04/12 10:45:45;;;;;;;0.22;0.22;;;13.20;1.00;;;;;;5075274;28;20040;-70
2022/04/12 10:48:19;;;;;;;0.20;0.20;;;13.10;1.00;;;;;;5074710;28;20048;-70
2022/04/12 10:50:50;;;;;;;0.20;0.20;;;13.00;1.00;;;;;;5075322;28;20063;-70
2022/04/12 10:53:36;;;;;;;0.22;0.22;;;13.30;1.00;;;;;;5073544;28;20094;-69
2022/04/12 10:56:09;;;;;;;0.20;0.20;;;13.10;1.00;;;;;;5074692;28;20050;-69
2022/04/12 10:58:35;;;;;;;2.45;1.13;;;13.00;1.00;;;;;;5074915;28;20053;-69
2022/04/12 11:01:03;;;;;;;0.50;0.50;;;12.80;1.00;;;;;;5075567;28;20721;-69
2022/04/12 11:03:53;;;;;;;1.10;0.85;;;12.80;1.00;;;;;;5075625;28;20165;-69
2022/04/12 11:06:26;;;;;;;0.10;0.10;;;12.80;1.00;;;;;;5069804;28;20036;-69
2022/04/12 11:09:09;;;;;;;0.57;0.57;;;12.70;1.00;;;;;;5075261;28;20041;-70
2022/04/12 11:11:43;;;;;;;0.40;0.40;;;12.70;1.00;;;;;;5075183;28;20045;-69
2022/04/12 11:14:22;;;;;;;0.28;0.28;;;12.70;1.00;;;;;;5075116;28;20072;-69
2022/04/12 11:16:51;;;;;;;0.35;0.35;;;12.70;1.00;;;;;;5075284;28;20042;-70
2022/04/12 11:19:24;;;;;;;0.45;0.45;;;12.70;1.00;;;;;;5074987;28;20571;-69
2022/04/12 11:21:51;;;;;;;0.13;0.13;;;12.60;1.00;;;;;;5075322;28;20037;-69
2022/04/12 11:24:20;;;;;;;1.27;0.30;;;12.60;1.00;;;;;;5074732;28;20033;-69
2022/04/12 11:26:48;;;;;;;10.85;0.40;;;12.50;1.00;;;;;;5075133;28;20036;-69
2022/04/12 11:29:19;;;;;;;0.60;0.60;;;12.40;1.00;;;;;;5074802;28;20044;-69
2022/04/12 11:31:47;;;;;;;0.73;0.60;;;12.30;1.00;;;;;;5074819;28;20037;-69
2022/04/12 11:34:14;;;;;;;0.98;0.43;;;12.50;1.00;;;;;;5074645;28;20378;-70
2022/04/12 11:36:44;;;;;;;0.22;0.22;;;12.60;1.00;;;;;;5074956;28;20131;-69
2022/04/12 11:39:10;;;;;;;0.80;0.70;;;12.70;1.00;;;;;;5069593;28;20093;-70
2022/04/12 11:41:36;;;;;;;0.10;0.10;;;12.90;1.00;;;;;;5073567;28;20043;-69
2022/04/12 11:44:04;;;;;;;0.20;0.20;;;13.00;1.00;;;;;;5073075;28;20036;-69
2022/04/12 11:46:31;;;;;;;0.20;0.20;;;13.40;1.00;;;;;;5073524;28;20041;-70
2022/04/12 11:49:08;;;;;;;0.10;0.10;;;13.40;1.00;;;;;;5074087;28;20063;-70
2022/04/12 11:51:47;;;;;;;0.30;0.30;;;13.30;1.00;;;;;;5084540;28;20051;-69
2022/04/12 11:54:24;;;;;;;0.15;0.15;;;13.40;1.00;;;;;;5089626;28;20156;-70
2022/04/12 11:57:19;;;;;;;0.57;0.57;;;13.30;1.00;;;;;;5093885;28;20094;-70
2022/04/12 11:59:49;;;;;;;2.15;1.50;;;13.90;1.00;;;;;;5085049;28;20605;-69
2022/04/12 12:02:17;;;;;;;0.37;0.37;;;13.70;1.00;;;;;;5078706;28;20521;-70
2022/04/12 12:04:48;;;;;;;0.13;0.13;;;13.50;1.00;;;;;;5088586;28;20407;-70
2022/04/12 12:07:14;;;;;;;;;;;13.40;1.00;;;;;;5094194;28;20555;-70
2022/04/12 12:09:54;;;;;;;0.25;0.25;;;13.20;1.00;;;;;;5091424;28;19908;-70
2022/04/12 12:12:20;;;;;;;1.08;0.88;;;13.30;1.00;;;;;;5093284;28;20543;-70
2022/04/12 12:14:46;;;;;;;0.40;0.40;;;13.30;1.00;;;;;;5093802;28;20042;-70
2022/04/12 12:17:18;;;;;;;0.32;0.32;;;13.60;1.00;;;;;;5093310;28;20036;-70
2022/04/12 12:19:45;;;;;;;0.50;0.50;;;13.70;1.00;;;;;;5090501;28;20075;-70
2022/04/12 12:22:12;;;;;;;0.20;0.20;;;13.60;1.00;;;;;;5092707;28;20092;-70
2022/04/12 12:24:54;;;;;;;0.20;0.20;;;13.30;1.00;;;;;;5091577;28;20036;-70
2022/04/12 12:27:33;;;;;;;0.40;0.40;;;13.30;1.00;;;;;;5093288;28;20043;-70
2022/04/12 12:30:07;;;;;;;0.15;0.15;;;13.30;1.00;;;;;;5089200;28;20700;-70
2022/04/12 12:32:38;;;;;;;0.20;0.20;;;13.50;1.00;;;;;;5085564;28;20048;-70
2022/04/12 12:35:15;;;;;;;0.30;0.30;;;13.60;1.00;;;;;;5089626;28;20039;-70
2022/04/12 12:37:44;;;;;;;0.10;0.10;;;14.40;1.00;;;;;;5081761;28;20036;-70
2022/04/12 12:40:20;;;;;;;0.40;0.40;;;14.40;1.00;;;;;;5092518;28;20067;-70
2022/04/12 12:42:47;;;;;;;0.45;0.45;;;14.40;1.00;;;;;;5090755;28;20078;-70
2022/04/12 12:45:17;;;;;;;0.10;0.10;;;14.30;1.00;;;;;;5091951;28;20032;-70
2022/04/12 12:47:46;;;;;;;0.90;0.90;;;13.90;1.00;;;;;;5093381;28;20039;-70
2022/04/12 12:50:15;;;;;;;0.75;0.75;;;13.70;1.00;;;;;;5092411;28;20160;-70
2022/04/12 12:52:43;;;;;;;0.20;0.20;;;13.30;1.00;;;;;;5089341;28;20035;-70
2022/04/12 12:55:18;;;;;;;1.75;0.77;;;13.20;1.00;;;;;;5073220;28;20121;-70
2022/04/12 12:57:49;;;;;;;1.05;0.77;;;13.10;1.00;;;;;;5071505;28;20411;-70
2022/04/12 13:00:16;;;;;;;;;;;13.00;1.00;;;;;;5073231;28;20078;-70
2022/04/12 13:02:42;;;;;;;0.10;0.10;;;12.80;1.00;;;;;;5090932;28;20014;-70
2022/04/12 13:05:10;;;;;;;2.40;2.10;;;12.70;1.00;;;;;;5093261;28;20032;-70
2022/04/12 13:07:38;;;;;;;0.20;0.20;;;12.90;1.00;;;;;;5091611;28;20040;-70
2022/04/12 13:10:08;;;;;;;0.52;0.43;;;12.80;1.00;;;;;;5093660;28;20044;-70